createdAt,value
2023-05-04T00:01:11.441Z,11.13
2023-05-04T00:03:38.769Z,17.63
2023-05-04T00:06:05.853Z,10.93
2023-05-04T00:08:34.423Z,11.50
2023-05-04T00:11:01.545Z,18.20
2023-05-04T00:13:28.427Z,13.38
2023-05-04T00:15:55.305Z,10.73
2023-05-04T00:18:22.155Z,11.18
2023-05-04T00:20:49.036Z,12.85
2023-05-04T00:23:15.920Z,11.30
2023-05-04T00:25:42.813Z,11.15
2023-05-04T00:28:09.721Z,10.23
2023-05-04T00:30:36.598Z,13.98
2023-05-04T00:33:03.566Z,13.45
2023-05-04T00:35:31.816Z,10.82
2023-05-04T00:37:58.800Z,13.10
2023-05-04T00:40:25.845Z,14.20
2023-05-04T00:42:52.678Z,12.32
2023-05-04T00:45:19.548Z,11.13
2023-05-04T00:47:46.512Z,15.27
2023-05-04T00:50:13.431Z,13.00
2023-05-04T00:52:42.017Z,12.55
2023-05-04T00:55:09.875Z,11.80
2023-05-04T00:57:36.950Z,18.92
2023-05-04T01:00:04.584Z,14.15
2023-05-04T01:02:33.039Z,9.65
2023-05-04T01:05:00.029Z,12.63
2023-05-04T01:07:52.763Z,13.28
2023-05-04T01:10:27.425Z,13.98
2023-05-04T01:13:03.234Z,11.80
2023-05-04T01:15:30.463Z,13.07
2023-05-04T01:17:57.408Z,9.25
2023-05-04T01:20:24.319Z,11.23
2023-05-04T01:22:51.172Z,12.68
2023-05-04T01:25:18.529Z,13.30
2023-05-04T01:27:50.663Z,13.30
2023-05-04T01:30:21.489Z,12.35
2023-05-04T01:32:48.661Z,20.73
2023-05-04T01:35:16.351Z,10.88
2023-05-04T01:37:43.303Z,17.50
2023-05-04T01:40:12.660Z,15.45
2023-05-04T01:42:39.552Z,16.00
2023-05-04T01:45:07.992Z,13.18
2023-05-04T01:47:34.993Z,17.20
2023-05-04T01:50:02.106Z,9.23
2023-05-04T01:52:29.245Z,10.57
2023-05-04T01:54:56.047Z,12.82
2023-05-04T01:57:23.006Z,12.02
2023-05-04T01:59:49.956Z,11.10
2023-05-04T02:02:16.832Z,12.98
2023-05-04T02:04:43.742Z,11.05
2023-05-04T02:07:10.674Z,13.23
2023-05-04T02:09:37.606Z,13.73
2023-05-04T02:12:04.621Z,10.55
2023-05-04T02:14:31.597Z,10.65
2023-05-04T02:16:58.528Z,12.27
2023-05-04T02:19:25.475Z,11.63
2023-05-04T02:21:52.874Z,9.38
2023-05-04T02:24:19.788Z,10.98
2023-05-04T02:26:46.632Z,9.48
2023-05-04T02:29:13.520Z,11.68
2023-05-04T02:31:40.444Z,14.35
2023-05-04T02:34:07.465Z,11.48
2023-05-04T02:36:34.286Z,10.30
2023-05-04T02:39:01.410Z,11.07
2023-05-04T02:41:28.245Z,10.98
2023-05-04T02:43:55.195Z,9.50
2023-05-04T02:46:22.197Z,9.80
2023-05-04T02:48:49.139Z,12.13
2023-05-04T02:51:16.002Z,15.23
2023-05-04T02:53:42.994Z,9.18
2023-05-04T02:56:09.874Z,12.32
2023-05-04T02:58:36.873Z,11.30
2023-05-04T03:01:03.873Z,9.93
2023-05-04T03:03:30.766Z,8.80
2023-05-04T03:05:57.619Z,9.70
2023-05-04T03:08:24.515Z,8.15
2023-05-04T03:10:51.650Z,7.32
2023-05-04T03:13:18.530Z,10.90
2023-05-04T03:15:45.547Z,13.25
2023-05-04T03:18:12.759Z,7.95
2023-05-04T03:20:39.800Z,15.10
2023-05-04T03:23:06.856Z,10.95
2023-05-04T03:25:33.743Z,7.90
2023-05-04T03:28:01.027Z,10.85
2023-05-04T03:30:27.978Z,10.93
2023-05-04T03:32:54.897Z,8.88
2023-05-04T03:35:24.947Z,10.35
2023-05-04T03:37:52.151Z,13.57
2023-05-04T03:40:23.169Z,12.02
2023-05-04T03:42:54.631Z,9.57
2023-05-04T03:45:22.548Z,9.37
2023-05-04T03:47:49.474Z,12.95
2023-05-04T03:50:16.369Z,9.45
2023-05-04T03:52:43.254Z,11.25
2023-05-04T03:55:10.465Z,9.10
2023-05-04T03:57:37.411Z,9.60
2023-05-04T04:00:05.900Z,13.05
2023-05-04T04:05:00.049Z,15.55
2023-05-04T04:07:27.015Z,12.00
2023-05-04T04:09:53.873Z,19.35
2023-05-04T04:12:21.253Z,12.20
2023-05-04T04:14:54.480Z,15.70
2023-05-04T04:17:21.621Z,19.45
2023-05-04T04:19:48.535Z,14.25
2023-05-04T04:22:15.667Z,18.60
2023-05-04T04:24:42.538Z,16.92
2023-05-04T04:27:09.533Z,23.95
2023-05-04T04:29:36.478Z,18.80
2023-05-04T04:32:03.702Z,16.98
2023-05-04T04:34:30.747Z,25.58
2023-05-04T04:36:57.845Z,24.40
2023-05-04T04:39:24.850Z,21.00
2023-05-04T04:41:51.756Z,25.73
2023-05-04T04:44:18.679Z,26.35
2023-05-04T04:46:46.583Z,27.85
2023-05-04T04:49:13.586Z,31.95
2023-05-04T04:51:42.072Z,18.33
2023-05-04T04:54:08.969Z,24.05
2023-05-04T04:56:40.606Z,20.52
2023-05-04T04:59:07.712Z,23.38
2023-05-04T05:01:34.757Z,20.58
2023-05-04T05:04:01.770Z,15.88
2023-05-04T05:06:28.625Z,19.98
2023-05-04T05:08:55.545Z,23.08
2023-05-04T05:11:22.583Z,18.58
2023-05-04T05:13:49.409Z,28.05
2023-05-04T05:16:16.293Z,20.75
2023-05-04T05:18:43.199Z,21.30
2023-05-04T05:21:10.870Z,29.98
2023-05-04T05:23:37.759Z,27.05
2023-05-04T05:26:04.744Z,34.85
2023-05-04T05:28:32.314Z,31.77
2023-05-04T05:30:59.310Z,34.10
2023-05-04T05:33:26.212Z,31.00
2023-05-04T05:35:53.092Z,25.75
2023-05-04T05:38:24.480Z,22.42
2023-05-04T05:40:51.573Z,13.27
2023-05-04T05:43:18.475Z,16.33
2023-05-04T05:45:45.306Z,11.57
2023-05-04T05:48:12.238Z,20.45
2023-05-04T05:50:39.072Z,15.55
2023-05-04T05:53:06.039Z,19.88
2023-05-04T05:55:32.954Z,15.02
2023-05-04T05:57:59.836Z,25.67
2023-05-04T06:00:26.675Z,21.90
2023-05-04T06:02:53.683Z,14.48
2023-05-04T06:05:21.011Z,14.30
2023-05-04T06:07:47.959Z,20.55
2023-05-04T06:10:15.352Z,18.52
2023-05-04T06:12:42.243Z,22.30
2023-05-04T06:15:09.735Z,17.08
2023-05-04T06:17:39.103Z,20.35
2023-05-04T06:20:07.580Z,18.23
2023-05-04T06:22:34.600Z,18.33
2023-05-04T06:25:05.151Z,11.02
2023-05-04T06:27:34.161Z,19.17
2023-05-04T06:30:01.075Z,21.35
2023-05-04T06:32:27.974Z,15.27
2023-05-04T06:34:55.746Z,12.63
2023-05-04T06:37:22.727Z,15.77
2023-05-04T06:39:49.610Z,14.25
2023-05-04T06:42:16.542Z,19.65
2023-05-04T06:44:43.453Z,21.42
2023-05-04T06:47:10.376Z,12.35
2023-05-04T06:49:37.267Z,14.18
2023-05-04T06:52:04.378Z,11.90
2023-05-04T06:54:31.967Z,12.55
2023-05-04T06:56:58.905Z,13.98
2023-05-04T06:59:25.809Z,13.10
2023-05-04T07:01:52.700Z,9.98
2023-05-04T07:04:31.611Z,9.32
2023-05-04T07:06:58.506Z,11.77
2023-05-04T07:09:26.232Z,9.13
2023-05-04T07:11:53.249Z,14.70
2023-05-04T07:14:20.404Z,14.20
2023-05-04T07:16:47.266Z,15.65
2023-05-04T07:19:14.457Z,9.63
2023-05-04T07:21:41.568Z,12.10
2023-05-04T07:24:08.647Z,12.02
2023-05-04T07:26:35.743Z,13.75
2023-05-04T07:29:03.032Z,17.83
2023-05-04T07:31:30.802Z,13.57
2023-05-04T07:33:57.863Z,18.95
2023-05-04T07:36:26.765Z,10.43
2023-05-04T07:38:54.121Z,12.77
2023-05-04T07:41:21.030Z,12.23
2023-05-04T07:43:47.959Z,10.68
2023-05-04T07:46:14.898Z,14.35
2023-05-04T07:48:41.748Z,14.60
2023-05-04T07:51:14.052Z,13.65
2023-05-04T07:53:41.127Z,17.13
2023-05-04T07:56:13.128Z,10.00
2023-05-04T07:58:40.628Z,7.68
2023-05-04T08:01:07.709Z,8.73
2023-05-04T08:03:34.612Z,10.25
2023-05-04T08:06:02.142Z,12.00
2023-05-04T08:08:29.110Z,10.25
2023-05-04T08:10:59.894Z,12.75
2023-05-04T08:13:35.324Z,9.82
2023-05-04T08:16:02.231Z,7.78
2023-05-04T08:18:29.142Z,11.80
2023-05-04T08:20:56.663Z,8.30
2023-05-04T08:23:23.599Z,9.18
2023-05-04T08:25:50.514Z,7.90
2023-05-04T08:28:17.538Z,7.00
2023-05-04T08:30:44.584Z,8.40
2023-05-04T08:33:11.534Z,6.15
2023-05-04T08:35:38.473Z,8.23
2023-05-04T08:38:05.387Z,13.57
2023-05-04T08:40:33.987Z,7.57
2023-05-04T08:43:00.942Z,9.00
2023-05-04T08:45:28.234Z,7.30
2023-05-04T08:47:55.277Z,11.75
2023-05-04T08:50:22.245Z,9.80
2023-05-04T08:52:49.504Z,5.55
2023-05-04T08:55:17.252Z,9.40
2023-05-04T08:57:44.624Z,5.45
2023-05-04T09:00:12.563Z,9.20
2023-05-04T09:02:39.831Z,4.00
2023-05-04T09:05:08.099Z,6.97
2023-05-04T09:07:35.085Z,7.80
2023-05-04T09:10:02.814Z,6.68
2023-05-04T09:12:29.792Z,7.13
2023-05-04T09:14:56.925Z,4.28
2023-05-04T09:17:28.001Z,7.68
2023-05-04T09:20:02.183Z,3.50
2023-05-04T09:22:30.258Z,5.78
2023-05-04T09:25:11.082Z,7.45
2023-05-04T09:27:42.771Z,4.73
2023-05-04T09:30:11.412Z,4.50
2023-05-04T09:32:48.641Z,3.58
2023-05-04T09:35:29.428Z,4.60
2023-05-04T09:38:00.093Z,3.60
2023-05-04T09:40:43.074Z,6.47
2023-05-04T09:43:10.913Z,5.18
2023-05-04T09:45:45.462Z,5.80
2023-05-04T09:48:20.501Z,6.95
2023-05-04T09:51:00.929Z,3.88
2023-05-04T09:53:30.119Z,6.20
2023-05-04T09:56:11.441Z,4.30
2023-05-04T09:58:41.486Z,9.52
2023-05-04T10:01:09.130Z,7.90
2023-05-04T10:03:36.664Z,4.45
2023-05-04T10:06:05.854Z,7.82
2023-05-04T10:08:33.509Z,5.35
2023-05-04T10:11:00.400Z,11.18
2023-05-04T10:13:28.098Z,5.00
2023-05-04T10:16:02.714Z,8.68
2023-05-04T10:18:35.925Z,9.02
2023-05-04T10:21:29.910Z,12.65
2023-05-04T10:24:47.491Z,3.28
2023-05-04T10:27:40.383Z,5.05
2023-05-04T10:30:08.084Z,8.13
2023-05-04T10:32:40.023Z,10.73
2023-05-04T10:35:08.266Z,7.20
2023-05-04T10:37:37.670Z,7.63
2023-05-04T10:40:08.808Z,2.85
2023-05-04T10:42:43.708Z,3.17
2023-05-04T10:45:11.130Z,6.90
2023-05-04T10:47:40.757Z,4.70
2023-05-04T10:50:14.254Z,6.75
2023-05-04T10:52:53.716Z,5.50
2023-05-04T10:55:22.383Z,6.78
2023-05-04T10:57:50.731Z,4.95
2023-05-04T11:00:18.354Z,5.07
2023-05-04T11:02:47.401Z,11.98
2023-05-04T11:05:20.319Z,5.20
2023-05-04T11:07:53.203Z,4.03
2023-05-04T11:10:22.588Z,5.30
2023-05-04T11:12:49.612Z,5.07
2023-05-04T11:15:16.826Z,5.60
2023-05-04T11:17:48.296Z,3.88
2023-05-04T11:20:22.846Z,7.30
2023-05-04T11:22:50.199Z,5.32
2023-05-04T11:25:17.384Z,4.53
2023-05-04T11:27:44.535Z,6.35
2023-05-04T11:30:11.863Z,7.45
2023-05-04T11:32:42.828Z,4.00
2023-05-04T11:35:15.158Z,12.57
2023-05-04T11:37:43.297Z,5.63
2023-05-04T11:40:11.296Z,6.88
2023-05-04T11:42:43.836Z,6.57
2023-05-04T11:45:23.328Z,4.75
2023-05-04T11:47:52.177Z,7.57
2023-05-04T11:50:21.225Z,4.75
2023-05-04T11:52:48.759Z,4.15
2023-05-04T11:55:27.504Z,3.90
2023-05-04T11:57:58.671Z,3.67
2023-05-04T12:00:44.770Z,5.05
2023-05-04T12:03:51.184Z,6.32
2023-05-04T12:06:18.941Z,3.70
2023-05-04T12:08:46.022Z,18.52
2023-05-04T12:11:21.909Z,5.03
2023-05-04T12:14:00.871Z,6.38
2023-05-04T12:16:27.856Z,6.18
2023-05-04T12:19:05.998Z,7.65
2023-05-04T12:21:34.351Z,7.50
2023-05-04T12:24:01.522Z,5.28
2023-05-04T12:26:28.691Z,6.38
2023-05-04T12:28:58.738Z,10.00
2023-05-04T12:31:25.848Z,5.82
2023-05-04T12:33:53.107Z,6.97
2023-05-04T12:36:20.131Z,7.45
2023-05-04T12:38:47.167Z,4.82
2023-05-04T12:41:14.193Z,6.85
2023-05-04T12:43:41.103Z,5.18
2023-05-04T12:46:08.324Z,5.97
2023-05-04T12:48:35.505Z,7.45
2023-05-04T12:51:04.589Z,5.97
2023-05-04T12:53:32.405Z,12.10
2023-05-04T12:56:00.770Z,6.72
2023-05-04T12:58:28.323Z,4.05
2023-05-04T13:00:56.351Z,7.05
2023-05-04T13:03:23.777Z,8.40
2023-05-04T13:05:51.023Z,13.75
2023-05-04T13:08:19.721Z,4.40
2023-05-04T13:10:47.333Z,8.35
2023-05-04T13:13:17.231Z,6.47
2023-05-04T13:15:45.123Z,6.68
2023-05-04T13:18:12.897Z,6.80
2023-05-04T13:20:40.642Z,8.27
2023-05-04T13:23:07.658Z,3.83
2023-05-04T13:25:34.607Z,5.07
2023-05-04T13:28:01.543Z,10.00
2023-05-04T13:30:29.639Z,8.27
2023-05-04T13:32:56.794Z,10.65
2023-05-04T13:35:24.017Z,7.88
2023-05-04T13:37:51.572Z,4.88
2023-05-04T13:40:18.662Z,4.07
2023-05-04T13:42:45.753Z,5.10
2023-05-04T13:45:13.230Z,3.22
2023-05-04T13:58:05.560Z,4.45
2023-05-04T14:00:32.666Z,7.20
2023-05-04T14:03:02.268Z,5.00
2023-05-04T14:05:29.231Z,5.93
2023-05-04T14:07:56.275Z,9.32
2023-05-04T14:10:23.265Z,4.40
2023-05-04T14:12:50.277Z,8.57
2023-05-04T14:15:17.413Z,4.68
2023-05-04T14:17:44.295Z,9.32
2023-05-04T14:20:11.700Z,7.15
2023-05-04T14:22:42.201Z,6.32
2023-05-04T14:25:09.553Z,5.25
2023-05-04T14:27:36.687Z,7.25
2023-05-04T14:30:05.132Z,9.38
2023-05-04T14:32:32.183Z,6.43
2023-05-04T14:35:10.592Z,6.68
2023-05-04T14:37:39.269Z,5.70
2023-05-04T14:40:07.659Z,5.93
2023-05-04T14:42:35.519Z,4.40
2023-05-04T14:45:02.560Z,6.43
2023-05-04T14:47:29.890Z,7.40
2023-05-04T14:49:57.659Z,4.28
2023-05-04T14:52:26.959Z,8.00
2023-05-04T14:55:00.073Z,6.82
2023-05-04T14:57:29.510Z,7.10
2023-05-04T14:59:57.590Z,9.38
2023-05-04T15:02:26.943Z,10.98
2023-05-04T15:04:53.908Z,3.75
2023-05-04T15:07:21.054Z,10.32
2023-05-04T15:09:47.956Z,3.85
2023-05-04T15:12:14.896Z,4.30
2023-05-04T15:14:41.785Z,5.85
2023-05-04T15:17:08.903Z,14.40
2023-05-04T15:19:39.400Z,6.10
2023-05-04T15:22:06.852Z,4.22
2023-05-04T15:24:33.890Z,6.25
2023-05-04T15:27:02.058Z,4.05
2023-05-04T15:29:29.163Z,13.68
2023-05-04T15:31:56.400Z,16.80
2023-05-04T15:34:23.391Z,15.70
2023-05-04T15:36:50.405Z,14.40
2023-05-04T15:39:17.235Z,10.57
2023-05-04T15:41:44.129Z,13.90
2023-05-04T15:44:11.037Z,8.70
2023-05-04T15:46:38.030Z,8.05
2023-05-04T15:49:04.952Z,10.32
2023-05-04T15:51:32.126Z,9.00
2023-05-04T15:53:59.194Z,8.07
2023-05-04T15:56:26.256Z,6.97
2023-05-04T15:58:53.106Z,6.88
2023-05-04T16:01:20.133Z,4.88
2023-05-04T16:03:47.200Z,5.35
2023-05-04T16:06:17.576Z,6.30
2023-05-04T16:08:44.556Z,4.35
2023-05-04T16:11:11.479Z,5.45
2023-05-04T16:13:38.697Z,9.55
2023-05-04T16:16:06.270Z,10.93
2023-05-04T16:18:34.281Z,9.80
2023-05-04T16:21:01.190Z,12.85
2023-05-04T16:23:28.541Z,3.15
2023-05-04T16:25:55.839Z,4.32
2023-05-04T16:28:22.838Z,8.65
2023-05-04T16:30:50.426Z,12.18
2023-05-04T16:33:17.489Z,5.80
2023-05-04T16:35:44.397Z,5.70
2023-05-04T16:38:13.251Z,6.50
2023-05-04T16:40:42.207Z,19.90
2023-05-04T16:43:10.540Z,10.20
2023-05-04T16:45:38.237Z,8.98
2023-05-04T16:48:06.532Z,8.98
2023-05-04T16:50:33.622Z,7.70
2023-05-04T16:53:00.659Z,33.17
2023-05-04T16:55:27.619Z,7.25
2023-05-04T16:57:58.705Z,11.52
2023-05-04T17:00:25.792Z,16.48
2023-05-04T17:02:53.211Z,5.95
2023-05-04T17:05:24.140Z,13.60
2023-05-04T17:07:51.053Z,10.00
2023-05-04T17:10:18.892Z,7.30
2023-05-04T17:12:45.992Z,11.65
2023-05-04T17:15:13.026Z,13.55
2023-05-04T17:17:41.422Z,18.30
2023-05-04T17:20:09.574Z,11.57
2023-05-04T17:22:36.775Z,9.80
2023-05-04T17:25:03.976Z,16.65
2023-05-04T17:27:31.109Z,18.90
2023-05-04T17:29:58.142Z,21.40
2023-05-04T17:32:25.052Z,14.68
2023-05-04T17:34:51.932Z,25.88
2023-05-04T17:37:18.867Z,11.65
2023-05-04T17:39:47.238Z,11.30
2023-05-04T17:42:15.941Z,18.17
2023-05-04T17:44:43.114Z,22.60
2023-05-04T17:47:10.264Z,16.48
2023-05-04T17:49:37.183Z,14.38
2023-05-04T17:52:04.300Z,25.02
2023-05-04T17:54:31.225Z,13.95
2023-05-04T17:56:58.175Z,15.90
2023-05-04T17:59:25.134Z,19.92
2023-05-04T18:01:52.105Z,14.02
2023-05-04T18:04:19.035Z,13.43
2023-05-04T18:06:45.961Z,16.10
2023-05-04T18:09:12.854Z,10.80
2023-05-04T18:11:39.732Z,11.73
2023-05-04T18:14:07.209Z,25.95
2023-05-04T18:16:37.691Z,38.03
2023-05-04T18:19:06.510Z,14.85
2023-05-04T18:21:37.312Z,19.13
2023-05-04T18:24:04.859Z,22.50
2023-05-04T18:26:32.068Z,10.45
2023-05-04T18:29:07.524Z,15.10
2023-05-04T18:31:44.528Z,13.52
2023-05-04T18:34:11.414Z,11.02
2023-05-04T18:36:38.336Z,10.65
2023-05-04T18:39:05.221Z,13.30
2023-05-04T18:41:32.192Z,10.82
2023-05-04T18:44:00.967Z,9.57
2023-05-04T18:46:28.208Z,10.48
2023-05-04T18:48:56.396Z,16.98
2023-05-04T18:51:23.363Z,21.10
2023-05-04T18:53:50.269Z,26.25
2023-05-04T18:56:17.213Z,22.17
2023-05-04T18:58:44.425Z,17.05
2023-05-04T19:01:11.415Z,12.85
2023-05-04T19:03:38.369Z,20.27
2023-05-04T19:06:05.523Z,19.48
2023-05-04T19:08:33.123Z,31.17
2023-05-04T19:11:00.038Z,28.75
2023-05-04T19:13:27.201Z,20.80
2023-05-04T19:15:54.230Z,61.05
2023-05-04T19:18:21.840Z,50.67
2023-05-04T19:20:51.186Z,33.17
2023-05-04T19:23:18.067Z,40.25
2023-05-04T19:25:45.402Z,26.77
2023-05-04T19:28:12.567Z,26.77
2023-05-04T19:30:40.137Z,17.25
2023-05-04T19:33:08.586Z,15.38
2023-05-04T19:35:35.996Z,16.48
2023-05-04T19:38:03.174Z,18.13
2023-05-04T19:40:30.057Z,16.80
2023-05-04T19:42:57.076Z,13.05
2023-05-04T19:45:24.001Z,11.82
2023-05-04T19:47:55.042Z,16.15
2023-05-04T19:50:22.357Z,8.40
2023-05-04T19:52:49.324Z,10.55
2023-05-04T19:55:19.585Z,12.13
2023-05-04T19:57:47.852Z,11.52
2023-05-04T20:00:17.203Z,20.60
2023-05-04T20:02:46.794Z,16.55
2023-05-04T20:05:13.826Z,7.22
2023-05-04T20:07:41.008Z,12.05
2023-05-04T20:10:08.528Z,17.13
2023-05-04T20:12:35.703Z,13.00
2023-05-04T20:15:02.611Z,8.57
2023-05-04T20:17:29.534Z,10.52
2023-05-04T20:19:56.619Z,8.45
2023-05-04T20:22:26.007Z,7.88
2023-05-04T20:24:52.876Z,13.60
2023-05-04T20:27:19.971Z,9.60
2023-05-04T20:29:46.875Z,6.78
2023-05-04T20:32:14.375Z,7.68
2023-05-04T20:34:43.064Z,8.70
2023-05-04T20:37:09.985Z,5.88
2023-05-04T20:39:36.950Z,9.85
2023-05-04T20:42:05.726Z,16.08
2023-05-04T20:44:33.318Z,6.30
2023-05-04T20:47:00.148Z,10.00
2023-05-04T20:49:27.082Z,10.50
2023-05-04T20:51:56.609Z,9.68
2023-05-04T20:54:24.204Z,9.88
2023-05-04T20:56:51.084Z,12.35
2023-05-04T20:59:17.946Z,8.48
2023-05-04T21:01:45.075Z,10.98
2023-05-04T21:04:12.025Z,10.40
2023-05-04T21:06:38.881Z,12.95
2023-05-04T21:09:05.825Z,15.57
2023-05-04T21:11:32.785Z,10.90
2023-05-04T21:14:01.948Z,8.95
2023-05-04T21:16:28.968Z,8.20
2023-05-04T21:18:55.962Z,11.02
2023-05-04T21:21:22.825Z,15.93
2023-05-04T21:23:49.728Z,8.57
2023-05-04T21:26:16.611Z,8.57
2023-05-04T21:28:43.418Z,11.23
2023-05-04T21:31:15.545Z,13.00
2023-05-04T21:33:42.438Z,9.20
2023-05-04T21:36:15.651Z,7.38
2023-05-04T21:38:42.833Z,10.80
2023-05-04T21:41:13.668Z,7.70
2023-05-04T21:43:40.818Z,10.82
2023-05-04T21:46:08.416Z,12.02
2023-05-04T21:48:35.900Z,10.27
2023-05-04T21:51:06.828Z,8.95
2023-05-04T21:53:34.395Z,9.63
2023-05-04T21:56:08.424Z,5.82
2023-05-04T21:58:37.339Z,10.63
2023-05-04T22:01:04.255Z,9.40
2023-05-04T22:03:31.089Z,9.48
2023-05-04T22:05:58.004Z,12.57
2023-05-04T22:08:25.473Z,8.93
2023-05-04T22:10:56.261Z,11.60
2023-05-04T22:13:24.442Z,13.82
2023-05-04T22:15:51.673Z,6.38
2023-05-04T22:18:18.712Z,8.18
2023-05-04T22:20:46.058Z,8.65
2023-05-04T22:23:13.540Z,9.98
2023-05-04T22:25:40.584Z,13.43
2023-05-04T22:28:07.494Z,11.15
2023-05-04T22:30:34.560Z,8.00
2023-05-04T22:33:01.607Z,11.30
2023-05-04T22:35:28.560Z,7.85
2023-05-04T22:37:55.488Z,7.45
2023-05-04T22:40:22.589Z,8.23
2023-05-04T22:42:49.415Z,11.25
2023-05-04T22:45:18.335Z,11.77
2023-05-04T22:47:46.834Z,8.63
2023-05-04T22:50:14.480Z,8.32
2023-05-04T22:52:41.851Z,9.13
2023-05-04T22:55:09.399Z,8.43
2023-05-04T22:57:36.848Z,7.38
2023-05-04T23:00:08.335Z,9.57
2023-05-04T23:02:36.000Z,16.00
2023-05-04T23:05:03.082Z,8.48
2023-05-04T23:07:29.936Z,19.25
2023-05-04T23:09:56.841Z,11.02
2023-05-04T23:12:26.324Z,9.27
2023-05-04T23:14:53.354Z,7.97
2023-05-04T23:17:20.421Z,6.88
2023-05-04T23:19:47.676Z,10.07
2023-05-04T23:22:14.929Z,9.18
2023-05-04T23:24:42.332Z,6.85
2023-05-04T23:27:09.226Z,7.35
2023-05-04T23:29:36.204Z,9.35
2023-05-04T23:32:03.927Z,7.40
2023-05-04T23:34:31.179Z,10.40
2023-05-04T23:36:58.059Z,7.80
2023-05-04T23:39:24.939Z,8.23
2023-05-04T23:41:51.778Z,12.95
2023-05-04T23:44:18.648Z,10.07
2023-05-04T23:46:48.116Z,10.90
2023-05-04T23:49:14.996Z,13.13
2023-05-04T23:51:41.874Z,9.45
2023-05-04T23:54:09.227Z,13.88
2023-05-04T23:56:36.294Z,10.82
2023-05-04T23:59:03.650Z,11.20
